Norway House Airport
CYNE : now visible

Airfield :











YOU CAN JOIN US ON...

 
LOGIN :

Register | Disclaimer

   EN    FR    IT 

 









Legend :    VFR   Marginal VFR   IFR   Intensive IFR   Very Intensive IFR
Visi :
Ceiling :
>= 8 km
>= 3000ft
5 to 8 km
1000 to 3000 ft
1500m to 5 km
500 to 1000 ft
800 to 1500m
200 to 500 ft
< 800m
< 200 ft
Symbols :   Thunderstorms  Fog  Heavy snow  Heavy precipitations  Wind > 20 kt






- Airport Elevation : 734 ft
- IATA code : YNE


CYNE - Norway House

CURRENT METAR :
  • 201719Z AUTO 15007KT 110V170 9SM -SN SCT015 BKN026 BKN037 OVC076 M01/M02 A3008 RMK SLP203

EXPIRED METARs :
  • 201711Z AUTO 14004KT 1 3/4SM -SN FEW009 BKN018 OVC029 M01/M02 A3008 RMK SLP203
  • 201705Z AUTO 14005KT 3/4SM -SN SCT009 BKN012 BKN027 OVC065 M01/M02 A3008 RMK VIS VRB 1/2-1 3/4 SLP204
  • 201642Z AUTO 15004KT 110V190 9SM FEW009 BKN024 OVC060 M01/M02 A3009 RMK SLP205
  • 201622Z AUTO 16004KT 110V180 6SM -SN BKN011 OVC027 M02/M02 A3009 RMK SLP206
  • 201613Z AUTO 14004KT 110V180 3/8SM SN VV008 M02/M02 A3009 RMK SLP206
  • 201601Z AUTO 16004KT 100V170 1/4SM +SN VV007 M02/M02 A3009 RMK SLP206
  • 201544Z AUTO 15005KT 110V180 1/2SM SN VV008 M02/M02 A3009 RMK SLP206
  • 201530Z AUTO 14005KT 3/8SM SN VV007 M02/M02 A3009 RMK SLP205
  • 201514Z AUTO 15004KT 110V180 1/4SM +SN VV009 M02/M03 A3009 RMK SLP206
  • 201444Z AUTO 10003KT 3/8SM SN VV010 M03/M03 A3009 RMK SLP207

TAF AMD TAF CYNE
Valid from the 20 at 14:00 until the 21 at 01:00 UTC


201437Z 2014/2101 VRB03KT P6SM -SN OVC040
TEMPO 2014/2018 1SM -SHSN VV012
FM201800 20008KT P6SM BKN040
TEMPO 2018/2101 2SM -SHSN BKN020 OVC040
PROB30 2018/2101 3/4SM -SHSN VV010 RMK FCST BASED ON AUTO OBS. NXT FCST BY 201900Z
CZWG FIR / North America



MET'MAP, your aeronautical weather chart ! - Copyright ORBIFLY December 2007 - Disclaimer

ORBIFLY MET'MAP TEAM :

Programming & Development : Alexandra Zaïnal
Concept & original design : Baudouin d'Aumeries
Assistance for programming : Marc-Olivier Méhu
Technical & hardware support : Manuel Goepfert

Contact : metmap@orbifly.com




SOURCES & CREDITS :

   NOAA       Earth
Advisory